Latest Weather Observations for Point Stuart

IDD60801

Issued at 6:35 pm CST Friday 25 April 2014 (issued every 30 minutes, with the page automatically refreshed every 10 minutes)

About weather observations | Map of weather stations | Latest weather observations for NT | Other Formats
Station Details ID: 014254 Name: POINT STUART Lat: -12.24 Lon: 131.88 Height: 1.0 m
Data from the previous 72 hours. | See also: Recent months for locations in Northern Territory
Date/Time
CST
Temp
°C
App
Temp
°C
Dew
Point
Rel
Hum
%
Delta-T
°C
Wind Press
QNH
hPa
Press
MSL
hPa
Rain
since 9 am
mm
Dir
 
Spd
km/h
Gust
km/h
Spd
kts
Gust
kts
25/06:30pm 28.1 34.6 25.1 84 2.1 WSW 0 0 0 0 1006.5 - 0.0
25/06:00pm 29.5 36.2 25.9 81 2.6 WSW 2 6 1 3 1006.2 1006.2 0.0
25/05:30pm 30.0 35.2 25.1 75 3.4 W 7 9 4 5 1005.8 - 0.0
25/05:00pm 30.4 33.7 24.5 70 4.1 W 15 19 8 10 1005.5 - 0.0
25/04:30pm 31.6 33.4 23.2 61 5.8 W 19 22 10 12 1005.3 - 0.0
25/04:00pm 31.9 34.8 24.5 65 5.2 NW 17 26 9 14 1005.1 - 0.0
25/03:30pm 32.0 34.9 25.1 67 4.9 NW 19 26 10 14 1005.2 - 0.0
25/03:00pm 31.9 35.5 25.0 67 4.9 NW 15 20 8 11 1005.6 1005.6 0.0
25/02:30pm 31.4 34.9 24.8 68 4.6 NNW 15 22 8 12 1006.0 - 0.0
25/02:00pm 32.2 35.7 24.8 65 5.2 NW 15 20 8 11 1006.3 - 0.0
25/01:30pm 31.7 35.5 25.3 69 4.5 NW 15 20 8 11 1006.7 - 0.0
25/01:00pm 31.5 34.9 23.3 61 5.7 SW 11 17 6 9 1007.0 - 0.0
25/12:30pm 31.7 36.4 24.3 65 5.2 SSW 7 13 4 7 1007.6 - 0.0
25/12:00pm 30.9 35.1 24.1 67 4.7 S 9 15 5 8 1008.2 1008.2 0.0
25/11:30am 30.9 35.1 24.1 67 4.7 S 9 17 5 9 1008.7 - 0.0
25/11:00am 30.9 34.1 23.0 62 5.4 SSE 11 19 6 10 1009.1 - 0.0
25/10:30am 30.5 34.9 24.4 70 4.3 SSE 9 13 5 7 1009.3 - 0.0
25/10:00am 29.9 33.7 24.1 71 4.0 SSE 11 17 6 9 1009.4 - 0.0
25/09:30am 29.4 33.0 23.8 72 3.9 SE 11 17 6 9 1009.3 - 0.0
25/09:00am 28.0 32.4 24.4 81 2.5 SE 9 13 5 7 1009.0 1009.0 0.0
25/08:30am 26.7 32.1 25.5 93 0.8 SE 7 11 4 6 1008.7 - 0.0
25/08:00am 25.9 31.4 25.6 98 0.2 SE 7 9 4 5 1008.5 - 0.0
25/07:30am 25.5 30.9 25.5 100 0.0 SSE 7 9 4 5 1008.2 - 0.0
25/07:00am 25.1 29.9 25.1 100 0.0 S 9 9 5 5 1007.9 - 0.0
25/06:30am 25.1 29.9 25.1 100 0.0 S 9 9 5 5 1007.3 - 0.0
25/06:00am 25.4 30.8 25.4 100 0.0 SSE 7 9 4 5 1006.9 1006.9 0.0
25/05:30am 25.6 31.3 25.6 100 0.0 S 6 9 3 5 1006.5 - 0.0
25/05:00am 25.7 31.3 25.7 100 0.0 S 7 9 4 5 1006.4 - 0.0
25/04:30am 25.6 31.1 25.6 100 0.0 S 7 9 4 5 1006.1 - 0.0
25/04:00am 25.9 31.6 25.9 100 0.0 S 7 9 4 5 1005.9 - 0.0
25/03:30am 25.8 31.4 25.8 100 0.0 S 7 9 4 5 1006.2 - 0.0
25/03:00am 25.9 31.6 25.9 100 0.0 SSW 7 9 4 5 1006.0 1006.0 0.0
25/02:30am 26.1 31.9 26.1 100 0.0 SSW 7 11 4 6 1006.2 - 0.0
25/02:00am 26.0 31.8 26.0 100 0.0 SW 7 11 4 6 1006.6 - 0.0
25/01:30am 26.1 31.6 26.1 100 0.0 SW 9 11 5 6 1006.7 - 0.0
25/01:00am 26.4 32.4 26.4 100 0.0 SSW 7 9 4 5 1007.0 - 0.0
25/12:30am 26.6 32.8 26.6 100 0.0 SSW 7 7 4 4 1007.4 - 0.0
25/12:00am 26.5 32.6 26.5 100 0.0 SW 7 9 4 5 1007.6 1007.6 0.0
 
Date/Time
CST
Temp
°C
App
Temp
°C
Dew
Point
Rel
Hum
%
Delta-T
°C
Wind Press
QNH
hPa
Press
MSL
hPa
Rain
since 9 am
mm
Dir
 
Spd
km/h
Gust
km/h
Spd
kts
Gust
kts
24/11:30pm 26.3 32.3 26.3 100 0.0 WSW 7 9 4 5 1007.9 - 0.0
24/11:00pm 26.6 32.8 26.6 100 0.0 SW 7 9 4 5 1008.1 - 0.0
24/10:30pm 26.8 33.0 26.6 99 0.1 WSW 7 7 4 4 1008.3 - 0.0
24/10:00pm 27.1 34.8 26.9 99 0.1 CALM 0 6 0 3 1008.1 - 0.0
24/09:30pm 27.0 33.8 26.7 98 0.2 W 4 7 2 4 1007.9 - 0.0
24/09:00pm 27.2 33.6 26.9 98 0.2 W 7 9 4 5 1007.7 1007.7 0.0
24/08:30pm 27.3 33.5 26.4 95 0.6 WNW 6 7 3 4 1007.3 - 0.0
24/08:00pm 27.3 33.4 26.2 94 0.8 NW 6 7 3 4 1006.8 - 0.0
24/07:30pm 27.6 33.0 26.0 91 1.1 WNW 9 11 5 6 1006.3 - 0.0
24/07:00pm 28.6 35.0 26.6 89 1.4 SSW 6 7 3 4 1005.7 - 0.0
24/06:30pm 29.4 37.0 26.8 86 1.9 CALM 0 0 0 0 1005.3 - 0.0
24/06:00pm 30.0 35.8 25.7 78 3.1 SSW 6 7 3 4 1005.0 1005.0 0.0
24/05:30pm 30.7 35.8 24.6 70 4.3 S 6 7 3 4 1004.8 - 0.0
24/05:00pm 30.9 34.3 23.3 64 5.2 S 11 13 6 7 1004.6 - 0.0
24/04:30pm 31.1 34.7 23.7 64 5.1 SSE 11 19 6 10 1004.7 - 0.0
24/04:00pm 31.7 35.7 23.8 63 5.5 S 9 15 5 8 1004.7 - 0.0
24/03:30pm 31.1 34.4 23.2 63 5.4 SE 11 20 6 11 1004.9 - 0.0
24/03:00pm 31.6 35.7 24.5 66 5.0 E 11 20 6 11 1005.3 1005.3 0.0
24/02:30pm 31.7 34.4 23.5 62 5.7 S 15 20 8 11 1005.7 - 0.0
24/02:00pm 31.6 34.8 23.7 63 5.5 SSE 13 19 7 10 1006.1 - 0.0
24/01:30pm 31.3 34.5 24.4 66 4.8 SSE 15 20 8 11 1006.4 - 0.0
24/01:00pm 30.4 32.2 23.3 66 4.9 SSE 19 26 10 14 1006.7 - 0.0
24/12:30pm 30.6 32.5 23.8 67 4.7 S 20 32 11 17 1006.9 - 0.0
24/12:00pm 30.6 33.8 25.0 72 3.9 S 17 22 9 12 1007.5 1007.5 0.0
24/11:30am 30.0 33.2 24.9 74 3.6 S 17 24 9 13 1007.8 - 0.0
24/11:00am 29.2 32.6 24.7 77 3.1 S 15 20 8 11 1008.4 - 0.0
24/10:30am 28.5 32.3 24.7 80 2.7 SSE 13 19 7 10 1008.9 - 0.0
24/10:00am 27.8 31.2 24.6 83 2.2 S 15 17 8 9 1009.1 - 0.0
24/09:30am 27.2 30.8 24.3 84 2.0 SE 13 22 7 12 1009.3 - 0.0
24/09:00am 26.9 31.1 24.7 88 1.5 SE 11 17 6 9 1008.9 1008.9 3.0
24/08:30am 26.4 30.3 25.4 94 0.7 SSE 15 17 8 9 1008.5 - 3.0
24/08:00am 25.8 30.9 25.6 99 0.1 SE 9 11 5 6 1008.2 - 3.0
24/07:30am 25.0 29.7 25.0 100 0.0 S 9 13 5 7 1007.8 - 3.0
24/07:00am 24.6 28.7 24.6 100 0.0 S 11 15 6 8 1006.9 - 3.0
24/06:30am 24.6 28.7 24.6 100 0.0 S 11 15 6 8 1006.4 - 3.0
24/06:00am 24.7 28.9 24.7 100 0.0 S 11 15 6 8 1006.1 1006.1 3.0
24/05:30am 24.8 29.0 24.8 100 0.0 SSE 11 13 6 7 1006.2 - 3.0
24/05:00am 24.9 29.2 24.9 100 0.0 S 11 13 6 7 1005.7 - 2.8
24/04:30am 24.9 29.6 24.9 100 0.0 S 9 11 5 6 1005.9 - 2.8
24/04:00am 25.0 30.7 25.0 100 0.0 S 4 7 2 4 1006.3 - 2.8
24/03:30am 25.0 29.7 25.0 100 0.0 S 9 13 5 7 1006.0 - 2.8
24/03:00am 24.9 29.2 24.9 100 0.0 SE 11 13 6 7 1006.0 1006.0 2.8
24/02:30am 25.0 29.7 25.0 100 0.0 ESE 9 13 5 7 1006.1 - 2.8
24/02:00am 25.1 29.9 25.1 100 0.0 ESE 9 11 5 6 1006.6 - 2.8
24/01:30am 25.2 30.5 25.2 100 0.0 SSE 7 9 4 5 1007.1 - 2.8
24/01:00am 25.2 30.5 25.2 100 0.0 SSE 7 11 4 6 1007.0 - 2.8
24/12:30am 25.1 29.9 25.1 100 0.0 SE 9 15 5 8 1007.1 - 2.8
24/12:00am 25.1 29.5 25.1 100 0.0 SE 11 13 6 7 1007.7 1007.7 2.8
 
Date/Time
CST
Temp
°C
App
Temp
°C
Dew
Point
Rel
Hum
%
Delta-T
°C
Wind Press
QNH
hPa
Press
MSL
hPa
Rain
since 9 am
mm
Dir
 
Spd
km/h
Gust
km/h
Spd
kts
Gust
kts
23/11:30pm 25.0 28.6 25.0 100 0.0 SSE 15 19 8 10 1008.1 - 2.8
23/11:00pm 25.6 29.2 25.6 100 0.0 S 17 26 9 14 1008.7 - 2.8
23/10:30pm 25.6 27.3 24.6 94 0.7 SSE 24 37 13 20 1009.2 - 1.4
23/10:00pm 26.7 32.2 26.2 97 0.4 SE 9 11 5 6 1008.6 - 0.0
23/09:30pm 27.0 34.0 25.9 94 0.8 CALM 0 0 0 0 1008.3 - 0.0
23/09:00pm 27.2 33.0 26.1 94 0.8 E 7 11 4 6 1008.0 1008.0 0.0
23/08:30pm 27.4 33.4 26.3 94 0.8 ENE 7 9 4 5 1007.6 - 0.0
23/08:00pm 27.5 32.8 25.9 91 1.1 SE 9 15 5 8 1007.0 - 0.0
23/07:30pm 27.6 33.8 25.2 87 1.7 N 2 7 1 4 1006.5 - 0.0
23/07:00pm 28.2 34.0 24.0 78 2.9 CALM 0 0 0 0 1006.3 - 0.0
23/06:30pm 28.9 33.7 24.2 76 3.3 N 6 9 3 5 1006.1 - 0.0
23/06:00pm 29.3 34.1 23.5 71 4.0 NNW 4 7 2 4 1005.6 1005.6 0.0
23/05:30pm 31.5 36.5 23.9 64 5.3 NNW 4 7 2 4 1005.1 - 0.0
23/05:00pm 31.4 35.1 23.2 61 5.6 N 9 13 5 7 1005.0 - 0.0
23/04:30pm 31.5 35.7 24.1 65 5.2 NE 9 15 5 8 1004.7 - 0.0
23/04:00pm 31.6 36.0 23.4 61 5.7 ENE 6 9 3 5 1004.7 - 0.0
23/03:30pm 31.2 34.6 24.1 66 4.9 NE 13 20 7 11 1004.9 - 0.0
23/03:00pm 30.7 34.7 24.4 69 4.4 NNE 11 17 6 9 1005.5 1005.5 0.0
23/02:30pm 30.1 33.4 23.8 69 4.4 NNE 13 20 7 11 1005.8 - 0.0
23/02:00pm 30.6 33.6 24.0 68 4.6 NNE 15 22 8 12 1006.3 - 0.0
23/01:30pm 30.8 33.8 24.7 70 4.3 NE 17 24 9 13 1006.7 - 0.0
23/01:00pm 30.8 34.6 24.7 70 4.3 NE 13 20 7 11 1007.0 - 0.0
23/12:30pm 30.3 33.0 24.2 70 4.2 NE 17 26 9 14 1007.2 - 0.0
23/12:00pm 31.2 34.1 25.1 70 4.3 ENE 19 26 10 14 1007.5 1007.5 0.0
23/11:30am 30.6 32.2 23.8 67 4.7 E 22 30 12 16 1008.0 - 0.0
23/11:00am 30.3 33.4 24.2 70 4.2 SE 15 22 8 12 1008.4 - 0.0
23/10:30am 29.8 32.2 23.7 70 4.2 SE 17 24 9 13 1008.7 - 0.0
23/10:00am 29.1 31.0 23.8 73 3.7 SSE 20 28 11 15 1009.0 - 0.0
23/09:30am 29.0 31.5 23.2 71 4.0 SSE 15 22 8 12 1009.1 - 0.0
23/09:00am 28.2 30.8 22.7 72 3.7 SSE 13 20 7 11 1009.1 1009.1 0.0
23/08:30am 27.2 30.8 23.7 81 2.4 S 11 15 6 8 1008.9 - 0.0
23/08:00am 25.9 29.6 23.9 89 1.4 S 11 15 6 8 1008.8 - 0.0
23/07:30am 24.9 29.2 24.2 96 0.5 S 9 13 5 7 1008.6 - 0.0
23/07:00am 24.1 28.3 24.1 100 0.0 S 9 11 5 6 1008.5 - 0.0
23/06:30am 23.7 28.2 23.7 100 0.0 S 6 7 3 4 1008.4 - 0.0
23/06:00am 23.3 27.4 23.0 98 0.2 SSW 6 7 3 4 1008.2 1008.2 0.0
23/05:30am 24.0 28.4 23.5 97 0.3 SSE 6 7 3 4 1007.9 - 0.0
23/05:00am 23.9 27.6 23.2 96 0.5 SE 9 11 5 6 1007.7 - 0.0
23/04:30am 24.1 27.4 23.2 95 0.6 SE 11 13 6 7 1007.8 - 0.0
23/04:00am 24.1 29.6 24.1 100 0.0 ENE 2 9 1 5 1007.9 - 0.0
23/03:30am 23.9 29.0 22.7 93 0.8 CALM 0 0 0 0 1007.8 - 0.0
23/03:00am 24.0 28.4 22.8 93 0.8 NE 4 6 2 3 1007.8 1007.8 0.0
23/02:30am 24.6 29.0 23.4 93 0.8 SSE 6 7 3 4 1007.6 - 0.0
23/02:00am 25.1 29.9 23.5 91 1.1 SE 4 6 2 3 1007.8 - 0.0
23/01:30am 25.7 29.8 23.9 90 1.2 SE 9 9 5 5 1008.0 - 0.0
23/01:00am 26.4 30.5 24.6 90 1.2 SE 11 13 6 7 1008.4 - 0.0
23/12:30am 27.4 32.0 26.0 92 1.0 ENE 13 17 7 9 1008.9 - 0.0
23/12:00am 25.8 30.0 23.5 87 1.6 E 7 9 4 5 1009.4 1009.4 0.0
 
Date/Time
CST
Temp
°C
App
Temp
°C
Dew
Point
Rel
Hum
%
Delta-T
°C
Wind Press
QNH
hPa
Press
MSL
hPa
Rain
since 9 am
mm
Dir
 
Spd
km/h
Gust
km/h
Spd
kts
Gust
kts
22/11:30pm 25.6 28.9 22.5 83 2.1 E 9 11 5 6 1009.7 - 0.0
22/11:00pm 25.9 28.4 21.8 78 2.7 E 11 13 6 7 1009.9 - 0.0
22/10:30pm 26.8 29.1 21.3 72 3.7 ESE 11 15 6 8 1009.8 - 0.0
22/10:00pm 27.0 29.6 22.0 74 3.4 SE 11 13 6 7 1009.4 - 0.0
22/09:30pm 27.3 29.7 21.6 71 3.8 SE 11 13 6 7 1008.9 - 0.0
22/09:00pm 27.8 29.7 21.3 67 4.3 SE 13 15 7 8 1008.2 1008.2 0.0
22/08:30pm 28.0 31.0 22.7 73 3.6 SE 11 13 6 7 1008.4 - 0.0
22/08:00pm 28.4 31.5 22.2 69 4.2 ESE 9 11 5 6 1008.6 - 0.0
22/07:30pm 28.7 31.4 22.2 68 4.4 ESE 11 11 6 6 1008.2 - 0.0
22/07:00pm 29.0 31.5 21.7 64 4.9 ESE 11 13 6 7 1007.8 - 0.0

Other Formats:

Comma delimited format used in spreadsheet applications
http://www.bom.gov.au/fwo/IDD60801/IDD60801.94127.axf

JavaScript Object Notation format (JSON) in row-major order
http://www.bom.gov.au/fwo/IDD60801/IDD60801.94127.json